sensor_id;sensor_type;location;lat;lon;timestamp;P1;durP1;ratioP1;P2;durP2;ratioP2
9722;SDS011;4900;49.306;8.500;2024-03-08T00:01:13;24.13;;;15.57;;
9722;SDS011;4900;49.306;8.500;2024-03-08T00:03:39;22.87;;;14.93;;
9722;SDS011;4900;49.306;8.500;2024-03-08T00:06:05;23.10;;;14.37;;
9722;SDS011;4900;49.306;8.500;2024-03-08T00:08:31;24.60;;;15.47;;
9722;SDS011;4900;49.306;8.500;2024-03-08T00:10:56;21.30;;;15.07;;
9722;SDS011;4900;49.306;8.500;2024-03-08T00:13:22;23.53;;;15.03;;
9722;SDS011;4900;49.306;8.500;2024-03-08T00:15:47;21.43;;;14.37;;
9722;SDS011;4900;49.306;8.500;2024-03-08T00:18:13;22.50;;;15.00;;
9722;SDS011;4900;49.306;8.500;2024-03-08T00:20:38;22.17;;;14.70;;
9722;SDS011;4900;49.306;8.500;2024-03-08T00:23:04;21.10;;;14.00;;
9722;SDS011;4900;49.306;8.500;2024-03-08T00:25:29;23.23;;;15.50;;
9722;SDS011;4900;49.306;8.500;2024-03-08T00:27:54;22.67;;;15.20;;
9722;SDS011;4900;49.306;8.500;2024-03-08T00:30:24;24.67;;;15.07;;
9722;SDS011;4900;49.306;8.500;2024-03-08T00:32:50;24.13;;;14.00;;
9722;SDS011;4900;49.306;8.500;2024-03-08T00:35:16;22.23;;;14.33;;
9722;SDS011;4900;49.306;8.500;2024-03-08T00:37:41;22.47;;;14.10;;
9722;SDS011;4900;49.306;8.500;2024-03-08T00:40:07;21.93;;;13.73;;
9722;SDS011;4900;49.306;8.500;2024-03-08T00:42:34;21.37;;;14.57;;
9722;SDS011;4900;49.306;8.500;2024-03-08T00:45:00;21.90;;;14.40;;
9722;SDS011;4900;49.306;8.500;2024-03-08T00:47:26;22.13;;;14.20;;
9722;SDS011;4900;49.306;8.500;2024-03-08T00:49:52;23.93;;;14.30;;
9722;SDS011;4900;49.306;8.500;2024-03-08T00:52:18;22.97;;;14.53;;
9722;SDS011;4900;49.306;8.500;2024-03-08T00:54:44;21.13;;;13.93;;
9722;SDS011;4900;49.306;8.500;2024-03-08T00:57:10;21.00;;;14.43;;
9722;SDS011;4900;49.306;8.500;2024-03-08T00:59:38;22.50;;;14.53;;
9722;SDS011;4900;49.306;8.500;2024-03-08T01:02:03;23.73;;;15.07;;
9722;SDS011;4900;49.306;8.500;2024-03-08T01:04:30;22.73;;;14.70;;
9722;SDS011;4900;49.306;8.500;2024-03-08T01:06:55;23.63;;;15.27;;
9722;SDS011;4900;49.306;8.500;2024-03-08T01:09:22;24.00;;;14.63;;
9722;SDS011;4900;49.306;8.500;2024-03-08T01:11:48;23.47;;;14.43;;
9722;SDS011;4900;49.306;8.500;2024-03-08T01:14:14;23.27;;;14.20;;
9722;SDS011;4900;49.306;8.500;2024-03-08T01:16:39;23.07;;;14.07;;
9722;SDS011;4900;49.306;8.500;2024-03-08T01:19:06;22.00;;;14.70;;
9722;SDS011;4900;49.306;8.500;2024-03-08T01:21:31;22.37;;;14.73;;
9722;SDS011;4900;49.306;8.500;2024-03-08T01:23:57;23.10;;;14.20;;
9722;SDS011;4900;49.306;8.500;2024-03-08T01:26:22;22.77;;;14.43;;
9722;SDS011;4900;49.306;8.500;2024-03-08T01:28:48;19.77;;;13.57;;
9722;SDS011;4900;49.306;8.500;2024-03-08T01:31:14;21.90;;;13.80;;
9722;SDS011;4900;49.306;8.500;2024-03-08T01:33:41;22.53;;;14.27;;
9722;SDS011;4900;49.306;8.500;2024-03-08T01:36:06;23.30;;;14.37;;
9722;SDS011;4900;49.306;8.500;2024-03-08T01:38:32;25.70;;;15.57;;
9722;SDS011;4900;49.306;8.500;2024-03-08T01:40:57;21.70;;;14.63;;
9722;SDS011;4900;49.306;8.500;2024-03-08T01:43:26;22.17;;;14.67;;
9722;SDS011;4900;49.306;8.500;2024-03-08T01:46:00;22.40;;;14.03;;
9722;SDS011;4900;49.306;8.500;2024-03-08T01:48:27;23.80;;;14.47;;
9722;SDS011;4900;49.306;8.500;2024-03-08T01:50:54;22.23;;;14.87;;
9722;SDS011;4900;49.306;8.500;2024-03-08T01:53:21;22.10;;;14.60;;
9722;SDS011;4900;49.306;8.500;2024-03-08T01:55:48;22.57;;;14.80;;
9722;SDS011;4900;49.306;8.500;2024-03-08T01:58:15;20.13;;;14.63;;
9722;SDS011;4900;49.306;8.500;2024-03-08T02:00:44;22.03;;;14.97;;
9722;SDS011;4900;49.306;8.500;2024-03-08T02:03:11;23.77;;;15.17;;
9722;SDS011;4900;49.306;8.500;2024-03-08T02:05:37;26.10;;;15.07;;
9722;SDS011;4900;49.306;8.500;2024-03-08T02:08:07;25.43;;;15.23;;
9722;SDS011;4900;49.306;8.500;2024-03-08T02:10:38;22.57;;;14.40;;
9722;SDS011;4900;49.306;8.500;2024-03-08T02:13:04;24.07;;;14.00;;
9722;SDS011;4900;49.306;8.500;2024-03-08T02:18:20;22.73;;;13.90;;
9722;SDS011;4900;49.306;8.500;2024-03-08T02:20:52;22.93;;;14.97;;
9722;SDS011;4900;49.306;8.500;2024-03-08T02:23:21;22.30;;;14.13;;
9722;SDS011;4900;49.306;8.500;2024-03-08T02:25:47;22.37;;;14.17;;
9722;SDS011;4900;49.306;8.500;2024-03-08T02:28:13;23.67;;;15.13;;
9722;SDS011;4900;49.306;8.500;2024-03-08T02:30:40;22.33;;;14.30;;
9722;SDS011;4900;49.306;8.500;2024-03-08T02:33:06;25.03;;;15.07;;
9722;SDS011;4900;49.306;8.500;2024-03-08T02:35:34;23.80;;;15.43;;
9722;SDS011;4900;49.306;8.500;2024-03-08T02:38:03;23.63;;;15.27;;
9722;SDS011;4900;49.306;8.500;2024-03-08T02:40:29;22.33;;;14.17;;
9722;SDS011;4900;49.306;8.500;2024-03-08T02:42:54;23.70;;;15.40;;
9722;SDS011;4900;49.306;8.500;2024-03-08T02:45:20;23.93;;;14.70;;
9722;SDS011;4900;49.306;8.500;2024-03-08T02:47:45;23.63;;;15.03;;
9722;SDS011;4900;49.306;8.500;2024-03-08T02:50:11;25.40;;;15.23;;
9722;SDS011;4900;49.306;8.500;2024-03-08T02:52:37;24.20;;;14.63;;
9722;SDS011;4900;49.306;8.500;2024-03-08T02:55:02;24.80;;;15.33;;
9722;SDS011;4900;49.306;8.500;2024-03-08T02:57:30;22.67;;;15.10;;
9722;SDS011;4900;49.306;8.500;2024-03-08T02:59:55;23.97;;;15.27;;
9722;SDS011;4900;49.306;8.500;2024-03-08T03:02:21;24.53;;;15.40;;
9722;SDS011;4900;49.306;8.500;2024-03-08T03:04:48;22.60;;;14.17;;
9722;SDS011;4900;49.306;8.500;2024-03-08T03:07:14;23.50;;;14.87;;
9722;SDS011;4900;49.306;8.500;2024-03-08T03:09:39;23.77;;;14.67;;
9722;SDS011;4900;49.306;8.500;2024-03-08T03:12:06;24.07;;;15.33;;
9722;SDS011;4900;49.306;8.500;2024-03-08T03:14:35;23.87;;;14.70;;
9722;SDS011;4900;49.306;8.500;2024-03-08T03:17:03;23.87;;;14.73;;
9722;SDS011;4900;49.306;8.500;2024-03-08T03:19:29;24.07;;;15.10;;
9722;SDS011;4900;49.306;8.500;2024-03-08T03:21:55;23.60;;;14.07;;
9722;SDS011;4900;49.306;8.500;2024-03-08T03:24:20;25.47;;;15.60;;
9722;SDS011;4900;49.306;8.500;2024-03-08T03:26:46;22.83;;;14.77;;
9722;SDS011;4900;49.306;8.500;2024-03-08T03:29:14;23.70;;;15.13;;
9722;SDS011;4900;49.306;8.500;2024-03-08T03:31:41;23.70;;;14.60;;
9722;SDS011;4900;49.306;8.500;2024-03-08T03:34:07;23.70;;;14.90;;
9722;SDS011;4900;49.306;8.500;2024-03-08T03:36:33;23.90;;;14.17;;
9722;SDS011;4900;49.306;8.500;2024-03-08T03:39:00;22.63;;;14.67;;
9722;SDS011;4900;49.306;8.500;2024-03-08T03:41:41;23.70;;;14.63;;
9722;SDS011;4900;49.306;8.500;2024-03-08T03:44:09;25.63;;;15.23;;
9722;SDS011;4900;49.306;8.500;2024-03-08T03:46:35;22.23;;;13.97;;
9722;SDS011;4900;49.306;8.500;2024-03-08T03:49:00;23.63;;;14.77;;
9722;SDS011;4900;49.306;8.500;2024-03-08T03:51:26;27.33;;;14.73;;
9722;SDS011;4900;49.306;8.500;2024-03-08T03:53:51;23.03;;;14.17;;
9722;SDS011;4900;49.306;8.500;2024-03-08T03:56:18;23.23;;;14.73;;
9722;SDS011;4900;49.306;8.500;2024-03-08T03:58:44;22.23;;;13.80;;
9722;SDS011;4900;49.306;8.500;2024-03-08T04:01:09;23.80;;;14.60;;
9722;SDS011;4900;49.306;8.500;2024-03-08T04:03:35;24.73;;;15.57;;
9722;SDS011;4900;49.306;8.500;2024-03-08T04:06:01;23.17;;;14.67;;
9722;SDS011;4900;49.306;8.500;2024-03-08T04:08:29;22.37;;;14.43;;
9722;SDS011;4900;49.306;8.500;2024-03-08T04:10:55;22.90;;;14.13;;
9722;SDS011;4900;49.306;8.500;2024-03-08T04:13:20;22.90;;;14.50;;
9722;SDS011;4900;49.306;8.500;2024-03-08T04:15:46;21.80;;;14.43;;
9722;SDS011;4900;49.306;8.500;2024-03-08T04:18:13;23.90;;;15.43;;
9722;SDS011;4900;49.306;8.500;2024-03-08T04:20:39;23.47;;;14.00;;
9722;SDS011;4900;49.306;8.500;2024-03-08T04:23:05;23.90;;;14.57;;
9722;SDS011;4900;49.306;8.500;2024-03-08T04:25:31;23.77;;;14.30;;
9722;SDS011;4900;49.306;8.500;2024-03-08T04:27:56;23.83;;;13.97;;
9722;SDS011;4900;49.306;8.500;2024-03-08T04:30:23;25.87;;;14.63;;
9722;SDS011;4900;49.306;8.500;2024-03-08T04:32:49;22.33;;;14.33;;
9722;SDS011;4900;49.306;8.500;2024-03-08T04:35:15;24.30;;;14.93;;
9722;SDS011;4900;49.306;8.500;2024-03-08T04:37:42;22.33;;;13.57;;
9722;SDS011;4900;49.306;8.500;2024-03-08T04:40:08;26.40;;;15.80;;
9722;SDS011;4900;49.306;8.500;2024-03-08T04:42:33;25.10;;;15.20;;
9722;SDS011;4900;49.306;8.500;2024-03-08T04:45:00;26.53;;;15.20;;
9722;SDS011;4900;49.306;8.500;2024-03-08T04:47:25;23.80;;;14.57;;
9722;SDS011;4900;49.306;8.500;2024-03-08T04:49:51;24.63;;;14.77;;
9722;SDS011;4900;49.306;8.500;2024-03-08T04:52:16;23.50;;;15.00;;
9722;SDS011;4900;49.306;8.500;2024-03-08T04:54:42;26.40;;;15.90;;
9722;SDS011;4900;49.306;8.500;2024-03-08T04:57:08;25.27;;;14.80;;
9722;SDS011;4900;49.306;8.500;2024-03-08T04:59:33;26.83;;;15.40;;
9722;SDS011;4900;49.306;8.500;2024-03-08T05:01:59;25.83;;;15.00;;
9722;SDS011;4900;49.306;8.500;2024-03-08T05:04:24;25.60;;;15.17;;
9722;SDS011;4900;49.306;8.500;2024-03-08T05:06:50;25.67;;;14.57;;
9722;SDS011;4900;49.306;8.500;2024-03-08T05:09:15;24.97;;;15.70;;
9722;SDS011;4900;49.306;8.500;2024-03-08T05:11:44;26.23;;;15.97;;
9722;SDS011;4900;49.306;8.500;2024-03-08T05:14:11;24.40;;;14.63;;
9722;SDS011;4900;49.306;8.500;2024-03-08T05:16:45;24.10;;;14.80;;
9722;SDS011;4900;49.306;8.500;2024-03-08T05:19:17;25.20;;;15.40;;
9722;SDS011;4900;49.306;8.500;2024-03-08T05:21:44;25.63;;;15.83;;
9722;SDS011;4900;49.306;8.500;2024-03-08T05:24:10;25.83;;;15.47;;
9722;SDS011;4900;49.306;8.500;2024-03-08T05:26:36;28.10;;;16.20;;
9722;SDS011;4900;49.306;8.500;2024-03-08T05:29:04;25.20;;;14.90;;
9722;SDS011;4900;49.306;8.500;2024-03-08T05:31:31;27.33;;;16.27;;
9722;SDS011;4900;49.306;8.500;2024-03-08T05:34:10;26.30;;;15.57;;
9722;SDS011;4900;49.306;8.500;2024-03-08T05:36:36;25.00;;;15.30;;
9722;SDS011;4900;49.306;8.500;2024-03-08T05:39:01;28.27;;;16.60;;
9722;SDS011;4900;49.306;8.500;2024-03-08T05:41:27;28.47;;;16.23;;
9722;SDS011;4900;49.306;8.500;2024-03-08T05:43:52;28.00;;;16.83;;
9722;SDS011;4900;49.306;8.500;2024-03-08T05:46:21;27.80;;;16.07;;
9722;SDS011;4900;49.306;8.500;2024-03-08T05:48:47;28.80;;;16.13;;
9722;SDS011;4900;49.306;8.500;2024-03-08T05:51:12;27.80;;;15.40;;
9722;SDS011;4900;49.306;8.500;2024-03-08T05:53:38;27.53;;;16.50;;
9722;SDS011;4900;49.306;8.500;2024-03-08T05:56:03;29.83;;;17.00;;
9722;SDS011;4900;49.306;8.500;2024-03-08T05:58:29;27.77;;;16.33;;
9722;SDS011;4900;49.306;8.500;2024-03-08T06:00:55;26.10;;;15.93;;
9722;SDS011;4900;49.306;8.500;2024-03-08T06:03:21;23.97;;;14.60;;
9722;SDS011;4900;49.306;8.500;2024-03-08T06:05:47;26.97;;;16.20;;
9722;SDS011;4900;49.306;8.500;2024-03-08T06:08:13;26.53;;;15.57;;
9722;SDS011;4900;49.306;8.500;2024-03-08T06:10:39;27.80;;;16.77;;
9722;SDS011;4900;49.306;8.500;2024-03-08T06:13:05;26.73;;;16.20;;
9722;SDS011;4900;49.306;8.500;2024-03-08T06:15:31;27.23;;;16.13;;
9722;SDS011;4900;49.306;8.500;2024-03-08T06:17:57;26.97;;;16.37;;
9722;SDS011;4900;49.306;8.500;2024-03-08T06:20:23;26.77;;;16.30;;
9722;SDS011;4900;49.306;8.500;2024-03-08T06:22:51;27.00;;;15.87;;
9722;SDS011;4900;49.306;8.500;2024-03-08T06:25:17;26.37;;;16.50;;
9722;SDS011;4900;49.306;8.500;2024-03-08T06:27:44;27.30;;;16.33;;
9722;SDS011;4900;49.306;8.500;2024-03-08T06:30:11;29.00;;;17.17;;
9722;SDS011;4900;49.306;8.500;2024-03-08T06:32:37;30.87;;;16.47;;
9722;SDS011;4900;49.306;8.500;2024-03-08T06:35:05;24.53;;;15.40;;
9722;SDS011;4900;49.306;8.500;2024-03-08T06:37:32;28.67;;;16.13;;
9722;SDS011;4900;49.306;8.500;2024-03-08T06:39:58;27.80;;;16.23;;
9722;SDS011;4900;49.306;8.500;2024-03-08T06:42:23;28.33;;;17.00;;
9722;SDS011;4900;49.306;8.500;2024-03-08T06:44:49;24.17;;;15.60;;
9722;SDS011;4900;49.306;8.500;2024-03-08T06:47:15;28.93;;;17.00;;
9722;SDS011;4900;49.306;8.500;2024-03-08T06:49:42;25.30;;;15.83;;
9722;SDS011;4900;49.306;8.500;2024-03-08T06:52:08;28.17;;;17.10;;
9722;SDS011;4900;49.306;8.500;2024-03-08T06:54:35;26.57;;;16.87;;
9722;SDS011;4900;49.306;8.500;2024-03-08T06:57:04;25.53;;;15.43;;
9722;SDS011;4900;49.306;8.500;2024-03-08T06:59:30;25.53;;;16.10;;
9722;SDS011;4900;49.306;8.500;2024-03-08T07:01:56;26.07;;;15.97;;
9722;SDS011;4900;49.306;8.500;2024-03-08T07:04:21;23.43;;;15.77;;
9722;SDS011;4900;49.306;8.500;2024-03-08T07:07:00;29.40;;;16.90;;
9722;SDS011;4900;49.306;8.500;2024-03-08T07:09:27;27.17;;;16.60;;
9722;SDS011;4900;49.306;8.500;2024-03-08T07:11:52;25.70;;;16.33;;
9722;SDS011;4900;49.306;8.500;2024-03-08T07:14:22;26.93;;;16.20;;
9722;SDS011;4900;49.306;8.500;2024-03-08T07:16:48;25.03;;;16.10;;
9722;SDS011;4900;49.306;8.500;2024-03-08T07:19:14;28.53;;;16.97;;
9722;SDS011;4900;49.306;8.500;2024-03-08T07:21:40;26.23;;;16.30;;
9722;SDS011;4900;49.306;8.500;2024-03-08T07:24:07;27.50;;;16.50;;
9722;SDS011;4900;49.306;8.500;2024-03-08T07:26:42;24.03;;;15.17;;
9722;SDS011;4900;49.306;8.500;2024-03-08T07:29:07;26.13;;;16.07;;
9722;SDS011;4900;49.306;8.500;2024-03-08T07:31:33;25.47;;;15.87;;
9722;SDS011;4900;49.306;8.500;2024-03-08T07:34:21;27.43;;;16.67;;
9722;SDS011;4900;49.306;8.500;2024-03-08T07:36:47;24.57;;;15.73;;
9722;SDS011;4900;49.306;8.500;2024-03-08T07:39:13;25.87;;;15.47;;
9722;SDS011;4900;49.306;8.500;2024-03-08T07:41:39;26.23;;;16.30;;
9722;SDS011;4900;49.306;8.500;2024-03-08T07:44:05;24.23;;;15.60;;
9722;SDS011;4900;49.306;8.500;2024-03-08T07:46:34;24.67;;;15.97;;
9722;SDS011;4900;49.306;8.500;2024-03-08T07:49:00;23.30;;;15.87;;
9722;SDS011;4900;49.306;8.500;2024-03-08T07:51:25;23.73;;;14.77;;
9722;SDS011;4900;49.306;8.500;2024-03-08T07:53:51;23.80;;;15.57;;
9722;SDS011;4900;49.306;8.500;2024-03-08T07:56:17;25.23;;;15.57;;
9722;SDS011;4900;49.306;8.500;2024-03-08T07:58:43;27.10;;;17.33;;
9722;SDS011;4900;49.306;8.500;2024-03-08T08:01:16;24.33;;;16.57;;
9722;SDS011;4900;49.306;8.500;2024-03-08T08:03:43;22.47;;;14.70;;
9722;SDS011;4900;49.306;8.500;2024-03-08T08:06:08;22.33;;;15.33;;
9722;SDS011;4900;49.306;8.500;2024-03-08T08:08:35;21.13;;;14.70;;
9722;SDS011;4900;49.306;8.500;2024-03-08T08:11:01;23.40;;;14.40;;
9722;SDS011;4900;49.306;8.500;2024-03-08T08:13:27;21.03;;;14.67;;
9722;SDS011;4900;49.306;8.500;2024-03-08T08:15:57;21.30;;;15.30;;
9722;SDS011;4900;49.306;8.500;2024-03-08T08:18:24;21.90;;;14.93;;
9722;SDS011;4900;49.306;8.500;2024-03-08T08:20:51;22.80;;;14.53;;
9722;SDS011;4900;49.306;8.500;2024-03-08T08:23:20;21.73;;;14.80;;
9722;SDS011;4900;49.306;8.500;2024-03-08T08:25:46;21.57;;;14.97;;
9722;SDS011;4900;49.306;8.500;2024-03-08T08:28:16;20.53;;;14.47;;
9722;SDS011;4900;49.306;8.500;2024-03-08T08:30:45;20.40;;;14.40;;
9722;SDS011;4900;49.306;8.500;2024-03-08T08:33:11;21.93;;;14.90;;
9722;SDS011;4900;49.306;8.500;2024-03-08T08:35:36;20.70;;;14.80;;
9722;SDS011;4900;49.306;8.500;2024-03-08T08:38:03;21.97;;;15.10;;
9722;SDS011;4900;49.306;8.500;2024-03-08T08:40:29;22.63;;;15.13;;
9722;SDS011;4900;49.306;8.500;2024-03-08T08:42:57;20.50;;;14.73;;
9722;SDS011;4900;49.306;8.500;2024-03-08T08:45:23;21.00;;;15.13;;
9722;SDS011;4900;49.306;8.500;2024-03-08T08:47:48;20.00;;;14.07;;
9722;SDS011;4900;49.306;8.500;2024-03-08T08:50:14;20.37;;;14.27;;
9722;SDS011;4900;49.306;8.500;2024-03-08T08:52:41;18.53;;;13.47;;
9722;SDS011;4900;49.306;8.500;2024-03-08T08:55:10;19.37;;;14.67;;
9722;SDS011;4900;49.306;8.500;2024-03-08T08:57:40;19.50;;;14.47;;
9722;SDS011;4900;49.306;8.500;2024-03-08T09:00:06;22.93;;;15.37;;
9722;SDS011;4900;49.306;8.500;2024-03-08T09:02:39;20.43;;;14.27;;
9722;SDS011;4900;49.306;8.500;2024-03-08T09:05:06;21.53;;;15.07;;
9722;SDS011;4900;49.306;8.500;2024-03-08T09:07:35;19.20;;;13.87;;
9722;SDS011;4900;49.306;8.500;2024-03-08T09:10:00;18.83;;;13.87;;
9722;SDS011;4900;49.306;8.500;2024-03-08T09:12:27;18.63;;;13.73;;
9722;SDS011;4900;49.306;8.500;2024-03-08T09:14:53;19.40;;;14.37;;
9722;SDS011;4900;49.306;8.500;2024-03-08T09:17:18;18.57;;;13.93;;
9722;SDS011;4900;49.306;8.500;2024-03-08T09:19:48;19.93;;;13.47;;
9722;SDS011;4900;49.306;8.500;2024-03-08T09:22:14;19.93;;;14.27;;
9722;SDS011;4900;49.306;8.500;2024-03-08T09:24:39;18.33;;;12.90;;
9722;SDS011;4900;49.306;8.500;2024-03-08T09:27:05;19.63;;;14.60;;
9722;SDS011;4900;49.306;8.500;2024-03-08T09:29:32;17.50;;;13.67;;
9722;SDS011;4900;49.306;8.500;2024-03-08T09:31:57;21.67;;;14.80;;
9722;SDS011;4900;49.306;8.500;2024-03-08T09:34:23;18.93;;;13.73;;
9722;SDS011;4900;49.306;8.500;2024-03-08T09:36:48;19.77;;;14.27;;
9722;SDS011;4900;49.306;8.500;2024-03-08T09:39:15;19.60;;;14.23;;
9722;SDS011;4900;49.306;8.500;2024-03-08T09:41:42;18.80;;;14.10;;
9722;SDS011;4900;49.306;8.500;2024-03-08T09:44:12;17.97;;;13.67;;
9722;SDS011;4900;49.306;8.500;2024-03-08T09:46:40;19.40;;;14.27;;
9722;SDS011;4900;49.306;8.500;2024-03-08T09:49:06;16.73;;;13.88;;
9722;SDS011;4900;49.306;8.500;2024-03-08T09:51:33;18.55;;;14.00;;
9722;SDS011;4900;49.306;8.500;2024-03-08T09:54:00;18.38;;;13.75;;
9722;SDS011;4900;49.306;8.500;2024-03-08T09:56:30;19.67;;;13.97;;
9722;SDS011;4900;49.306;8.500;2024-03-08T09:58:58;18.60;;;13.80;;
9722;SDS011;4900;49.306;8.500;2024-03-08T10:01:42;18.75;;;13.50;;
9722;SDS011;4900;49.306;8.500;2024-03-08T10:04:07;19.65;;;14.98;;
9722;SDS011;4900;49.306;8.500;2024-03-08T10:06:35;18.27;;;13.70;;
9722;SDS011;4900;49.306;8.500;2024-03-08T10:09:02;18.20;;;14.10;;
9722;SDS011;4900;49.306;8.500;2024-03-08T10:11:28;17.98;;;13.57;;
9722;SDS011;4900;49.306;8.500;2024-03-08T10:13:54;18.45;;;13.82;;
9722;SDS011;4900;49.306;8.500;2024-03-08T10:16:19;17.55;;;13.88;;
9722;SDS011;4900;49.306;8.500;2024-03-08T10:18:45;19.83;;;13.93;;
9722;SDS011;4900;49.306;8.500;2024-03-08T10:21:11;18.98;;;14.57;;
9722;SDS011;4900;49.306;8.500;2024-03-08T10:23:39;18.98;;;14.02;;
9722;SDS011;4900;49.306;8.500;2024-03-08T10:26:15;18.23;;;14.43;;
9722;SDS011;4900;49.306;8.500;2024-03-08T10:28:45;18.40;;;13.75;;
9722;SDS011;4900;49.306;8.500;2024-03-08T10:31:18;18.45;;;13.95;;
9722;SDS011;4900;49.306;8.500;2024-03-08T10:33:46;16.38;;;13.35;;
9722;SDS011;4900;49.306;8.500;2024-03-08T10:36:13;20.33;;;15.25;;
9722;SDS011;4900;49.306;8.500;2024-03-08T10:38:40;17.98;;;13.75;;
9722;SDS011;4900;49.306;8.500;2024-03-08T10:41:07;20.45;;;14.82;;
9722;SDS011;4900;49.306;8.500;2024-03-08T10:46:33;18.45;;;14.23;;
9722;SDS011;4900;49.306;8.500;2024-03-08T10:49:01;19.23;;;14.30;;
9722;SDS011;4900;49.306;8.500;2024-03-08T10:51:32;20.65;;;14.18;;
9722;SDS011;4900;49.306;8.500;2024-03-08T10:53:58;18.25;;;14.07;;
9722;SDS011;4900;49.306;8.500;2024-03-08T10:56:24;18.10;;;13.60;;
9722;SDS011;4900;49.306;8.500;2024-03-08T10:58:54;16.83;;;13.27;;
9722;SDS011;4900;49.306;8.500;2024-03-08T11:01:20;17.83;;;13.63;;
9722;SDS011;4900;49.306;8.500;2024-03-08T11:03:47;17.70;;;13.40;;
9722;SDS011;4900;49.306;8.500;2024-03-08T11:06:19;17.00;;;13.25;;
9722;SDS011;4900;49.306;8.500;2024-03-08T11:08:49;17.33;;;13.90;;
9722;SDS011;4900;49.306;8.500;2024-03-08T11:11:30;16.33;;;13.15;;
9722;SDS011;4900;49.306;8.500;2024-03-08T11:13:57;17.25;;;13.25;;
9722;SDS011;4900;49.306;8.500;2024-03-08T11:19:00;16.23;;;13.10;;
9722;SDS011;4900;49.306;8.500;2024-03-08T11:21:32;16.35;;;13.02;;
9722;SDS011;4900;49.306;8.500;2024-03-08T11:23:59;16.20;;;13.38;;
9722;SDS011;4900;49.306;8.500;2024-03-08T11:26:25;16.08;;;13.02;;
9722;SDS011;4900;49.306;8.500;2024-03-08T11:28:51;16.30;;;13.52;;
9722;SDS011;4900;49.306;8.500;2024-03-08T11:31:22;17.35;;;13.75;;
9722;SDS011;4900;49.306;8.500;2024-03-08T11:33:48;15.18;;;12.57;;
9722;SDS011;4900;49.306;8.500;2024-03-08T11:36:23;16.65;;;13.13;;
9722;SDS011;4900;49.306;8.500;2024-03-08T11:38:50;17.52;;;12.85;;
9722;SDS011;4900;49.306;8.500;2024-03-08T11:41:25;15.70;;;12.88;;
9722;SDS011;4900;49.306;8.500;2024-03-08T11:44:01;17.15;;;13.90;;
9722;SDS011;4900;49.306;8.500;2024-03-08T11:46:31;15.30;;;12.13;;
9722;SDS011;4900;49.306;8.500;2024-03-08T11:48:56;15.95;;;13.02;;
9722;SDS011;4900;49.306;8.500;2024-03-08T11:51:22;16.23;;;12.93;;
9722;SDS011;4900;49.306;8.500;2024-03-08T11:53:49;18.77;;;14.27;;
9722;SDS011;4900;49.306;8.500;2024-03-08T11:56:15;15.30;;;12.40;;
9722;SDS011;4900;49.306;8.500;2024-03-08T11:58:51;15.43;;;12.63;;
9722;SDS011;4900;49.306;8.500;2024-03-08T12:01:18;16.92;;;14.25;;
9722;SDS011;4900;49.306;8.500;2024-03-08T12:03:43;16.42;;;13.45;;
9722;SDS011;4900;49.306;8.500;2024-03-08T12:06:09;17.23;;;13.05;;
9722;SDS011;4900;49.306;8.500;2024-03-08T12:08:35;15.90;;;12.73;;
9722;SDS011;4900;49.306;8.500;2024-03-08T12:11:03;15.90;;;13.10;;
9722;SDS011;4900;49.306;8.500;2024-03-08T12:13:30;15.80;;;12.48;;
9722;SDS011;4900;49.306;8.500;2024-03-08T12:15:58;14.80;;;12.43;;
9722;SDS011;4900;49.306;8.500;2024-03-08T12:18:28;15.38;;;13.05;;
9722;SDS011;4900;49.306;8.500;2024-03-08T12:21:09;16.75;;;13.48;;
9722;SDS011;4900;49.306;8.500;2024-03-08T12:23:47;15.90;;;12.85;;
9722;SDS011;4900;49.306;8.500;2024-03-08T12:26:26;15.30;;;13.30;;
9722;SDS011;4900;49.306;8.500;2024-03-08T12:28:51;16.15;;;13.60;;
9722;SDS011;4900;49.306;8.500;2024-03-08T12:31:17;15.20;;;12.57;;
9722;SDS011;4900;49.306;8.500;2024-03-08T12:33:55;17.52;;;14.38;;
9722;SDS011;4900;49.306;8.500;2024-03-08T12:36:24;15.63;;;13.02;;
9722;SDS011;4900;49.306;8.500;2024-03-08T12:38:50;16.90;;;14.05;;
9722;SDS011;4900;49.306;8.500;2024-03-08T12:41:20;14.98;;;12.20;;
9722;SDS011;4900;49.306;8.500;2024-03-08T12:43:46;17.50;;;13.95;;
9722;SDS011;4900;49.306;8.500;2024-03-08T12:46:15;16.33;;;13.00;;
9722;SDS011;4900;49.306;8.500;2024-03-08T12:48:42;14.75;;;12.98;;
9722;SDS011;4900;49.306;8.500;2024-03-08T12:51:12;14.85;;;12.55;;
9722;SDS011;4900;49.306;8.500;2024-03-08T12:53:38;15.40;;;13.13;;
9722;SDS011;4900;49.306;8.500;2024-03-08T12:56:06;17.30;;;14.05;;
9722;SDS011;4900;49.306;8.500;2024-03-08T12:58:34;16.45;;;13.27;;
9722;SDS011;4900;49.306;8.500;2024-03-08T13:01:01;16.95;;;13.48;;
9722;SDS011;4900;49.306;8.500;2024-03-08T13:03:30;15.77;;;13.35;;
9722;SDS011;4900;49.306;8.500;2024-03-08T13:05:56;17.00;;;14.55;;
9722;SDS011;4900;49.306;8.500;2024-03-08T13:08:22;16.17;;;12.98;;
9722;SDS011;4900;49.306;8.500;2024-03-08T13:10:50;18.75;;;14.18;;
9722;SDS011;4900;49.306;8.500;2024-03-08T13:13:16;17.58;;;14.45;;
9722;SDS011;4900;49.306;8.500;2024-03-08T13:15:42;17.63;;;13.55;;
9722;SDS011;4900;49.306;8.500;2024-03-08T13:18:08;17.88;;;13.93;;
9722;SDS011;4900;49.306;8.500;2024-03-08T13:20:35;16.38;;;13.60;;
9722;SDS011;4900;49.306;8.500;2024-03-08T13:23:03;18.92;;;15.20;;
9722;SDS011;4900;49.306;8.500;2024-03-08T13:25:30;20.88;;;15.90;;
9722;SDS011;4900;49.306;8.500;2024-03-08T13:27:56;17.42;;;14.82;;
9722;SDS011;4900;49.306;8.500;2024-03-08T13:30:24;16.98;;;14.55;;
9722;SDS011;4900;49.306;8.500;2024-03-08T13:32:52;17.98;;;14.77;;
9722;SDS011;4900;49.306;8.500;2024-03-08T13:35:19;17.33;;;14.65;;
9722;SDS011;4900;49.306;8.500;2024-03-08T13:37:49;16.00;;;12.93;;
9722;SDS011;4900;49.306;8.500;2024-03-08T13:40:16;14.85;;;12.68;;
9722;SDS011;4900;49.306;8.500;2024-03-08T13:42:48;17.40;;;14.32;;
9722;SDS011;4900;49.306;8.500;2024-03-08T13:45:15;15.75;;;13.35;;
9722;SDS011;4900;49.306;8.500;2024-03-08T13:47:48;18.02;;;13.95;;
9722;SDS011;4900;49.306;8.500;2024-03-08T13:50:16;14.45;;;12.63;;
9722;SDS011;4900;49.306;8.500;2024-03-08T13:52:47;16.92;;;14.82;;
9722;SDS011;4900;49.306;8.500;2024-03-08T13:55:16;17.60;;;15.63;;
9722;SDS011;4900;49.306;8.500;2024-03-08T13:57:44;18.60;;;15.18;;
9722;SDS011;4900;49.306;8.500;2024-03-08T14:00:11;15.93;;;14.07;;
9722;SDS011;4900;49.306;8.500;2024-03-08T14:02:38;16.95;;;14.40;;
9722;SDS011;4900;49.306;8.500;2024-03-08T14:05:06;17.13;;;14.30;;
9722;SDS011;4900;49.306;8.500;2024-03-08T14:07:36;16.23;;;13.10;;
9722;SDS011;4900;49.306;8.500;2024-03-08T14:10:02;18.02;;;14.48;;
9722;SDS011;4900;49.306;8.500;2024-03-08T14:12:28;16.08;;;14.30;;
9722;SDS011;4900;49.306;8.500;2024-03-08T14:14:55;17.48;;;15.20;;
9722;SDS011;4900;49.306;8.500;2024-03-08T14:17:24;18.08;;;14.10;;
9722;SDS011;4900;49.306;8.500;2024-03-08T14:19:52;16.85;;;14.35;;
9722;SDS011;4900;49.306;8.500;2024-03-08T14:22:18;19.00;;;14.90;;
9722;SDS011;4900;49.306;8.500;2024-03-08T14:24:45;16.98;;;15.02;;
9722;SDS011;4900;49.306;8.500;2024-03-08T14:27:10;17.45;;;14.57;;
9722;SDS011;4900;49.306;8.500;2024-03-08T14:29:37;18.50;;;14.70;;
9722;SDS011;4900;49.306;8.500;2024-03-08T14:32:04;16.88;;;14.07;;
9722;SDS011;4900;49.306;8.500;2024-03-08T14:34:31;19.95;;;15.32;;
9722;SDS011;4900;49.306;8.500;2024-03-08T14:36:59;16.58;;;13.65;;
9722;SDS011;4900;49.306;8.500;2024-03-08T14:39:25;18.02;;;14.68;;
9722;SDS011;4900;49.306;8.500;2024-03-08T14:41:54;17.15;;;14.80;;
9722;SDS011;4900;49.306;8.500;2024-03-08T14:44:21;18.33;;;14.85;;
9722;SDS011;4900;49.306;8.500;2024-03-08T14:46:53;16.23;;;14.15;;
9722;SDS011;4900;49.306;8.500;2024-03-08T14:49:19;16.50;;;14.07;;
9722;SDS011;4900;49.306;8.500;2024-03-08T14:51:44;17.60;;;14.05;;
9722;SDS011;4900;49.306;8.500;2024-03-08T14:54:10;18.08;;;14.50;;
9722;SDS011;4900;49.306;8.500;2024-03-08T14:56:38;18.30;;;14.35;;